sensor_id;sensor_type;location;lat;lon;timestamp;P1;durP1;ratioP1;P2;durP2;ratioP2
52798;SDS011;38667;42.872;74.622;2023-07-13T00:00:06;12.50;;;3.60;;
52798;SDS011;38667;42.872;74.622;2023-07-13T00:02:34;32.63;;;4.82;;
52798;SDS011;38667;42.872;74.622;2023-07-13T00:05:01;23.95;;;4.70;;
52798;SDS011;38667;42.872;74.622;2023-07-13T00:07:27;14.85;;;4.00;;
52798;SDS011;38667;42.872;74.622;2023-07-13T00:09:53;15.93;;;3.65;;
52798;SDS011;38667;42.872;74.622;2023-07-13T00:12:23;11.55;;;4.13;;
52798;SDS011;38667;42.872;74.622;2023-07-13T00:14:51;16.42;;;3.85;;
52798;SDS011;38667;42.872;74.622;2023-07-13T00:17:17;12.30;;;3.90;;
52798;SDS011;38667;42.872;74.622;2023-07-13T00:19:46;13.70;;;3.47;;
52798;SDS011;38667;42.872;74.622;2023-07-13T00:22:12;11.15;;;3.58;;
52798;SDS011;38667;42.872;74.622;2023-07-13T00:24:38;11.00;;;3.40;;
52798;SDS011;38667;42.872;74.622;2023-07-13T00:27:04;7.80;;;3.45;;
52798;SDS011;38667;42.872;74.622;2023-07-13T00:29:31;11.30;;;4.00;;
52798;SDS011;38667;42.872;74.622;2023-07-13T00:31:57;14.60;;;3.33;;
52798;SDS011;38667;42.872;74.622;2023-07-13T00:34:23;7.32;;;2.90;;
52798;SDS011;38667;42.872;74.622;2023-07-13T00:36:51;10.23;;;3.08;;
52798;SDS011;38667;42.872;74.622;2023-07-13T00:39:18;13.15;;;3.47;;
52798;SDS011;38667;42.872;74.622;2023-07-13T00:41:44;10.38;;;3.80;;
52798;SDS011;38667;42.872;74.622;2023-07-13T00:44:10;10.93;;;3.95;;
52798;SDS011;38667;42.872;74.622;2023-07-13T00:46:39;15.55;;;3.90;;
52798;SDS011;38667;42.872;74.622;2023-07-13T00:49:07;11.57;;;3.40;;
52798;SDS011;38667;42.872;74.622;2023-07-13T00:51:36;8.35;;;3.45;;
52798;SDS011;38667;42.872;74.622;2023-07-13T00:54:09;11.13;;;3.45;;
52798;SDS011;38667;42.872;74.622;2023-07-13T00:56:39;9.30;;;3.03;;
52798;SDS011;38667;42.872;74.622;2023-07-13T00:59:07;11.80;;;3.33;;
52798;SDS011;38667;42.872;74.622;2023-07-13T01:01:36;9.98;;;3.65;;
52798;SDS011;38667;42.872;74.622;2023-07-13T01:04:02;7.30;;;3.30;;
52798;SDS011;38667;42.872;74.622;2023-07-13T01:06:28;14.65;;;4.43;;
52798;SDS011;38667;42.872;74.622;2023-07-13T01:08:55;14.05;;;4.20;;
52798;SDS011;38667;42.872;74.622;2023-07-13T01:11:25;13.88;;;4.65;;
52798;SDS011;38667;42.872;74.622;2023-07-13T01:13:52;17.63;;;4.55;;
52798;SDS011;38667;42.872;74.622;2023-07-13T01:16:20;14.57;;;4.35;;
52798;SDS011;38667;42.872;74.622;2023-07-13T01:18:50;11.23;;;4.28;;
52798;SDS011;38667;42.872;74.622;2023-07-13T01:21:18;12.57;;;4.72;;
52798;SDS011;38667;42.872;74.622;2023-07-13T01:23:44;12.00;;;4.63;;
52798;SDS011;38667;42.872;74.622;2023-07-13T01:26:11;15.32;;;4.70;;
52798;SDS011;38667;42.872;74.622;2023-07-13T01:28:37;13.95;;;4.63;;
52798;SDS011;38667;42.872;74.622;2023-07-13T01:31:04;15.48;;;4.75;;
52798;SDS011;38667;42.872;74.622;2023-07-13T01:33:30;14.18;;;5.30;;
52798;SDS011;38667;42.872;74.622;2023-07-13T01:35:57;16.05;;;5.50;;
52798;SDS011;38667;42.872;74.622;2023-07-13T01:38:25;28.63;;;7.15;;
52798;SDS011;38667;42.872;74.622;2023-07-13T01:40:51;15.05;;;5.63;;
52798;SDS011;38667;42.872;74.622;2023-07-13T01:43:18;16.45;;;5.60;;
52798;SDS011;38667;42.872;74.622;2023-07-13T01:45:45;9.15;;;5.00;;
52798;SDS011;38667;42.872;74.622;2023-07-13T01:48:11;11.63;;;5.15;;
52798;SDS011;38667;42.872;74.622;2023-07-13T01:50:38;16.52;;;5.70;;
52798;SDS011;38667;42.872;74.622;2023-07-13T01:53:04;19.65;;;6.28;;
52798;SDS011;38667;42.872;74.622;2023-07-13T01:55:33;18.63;;;6.00;;
52798;SDS011;38667;42.872;74.622;2023-07-13T01:58:00;19.50;;;5.55;;
52798;SDS011;38667;42.872;74.622;2023-07-13T02:00:26;10.70;;;5.10;;
52798;SDS011;38667;42.872;74.622;2023-07-13T02:02:52;15.35;;;5.43;;
52798;SDS011;38667;42.872;74.622;2023-07-13T02:05:19;19.38;;;6.53;;
52798;SDS011;38667;42.872;74.622;2023-07-13T02:07:45;17.52;;;6.72;;
52798;SDS011;38667;42.872;74.622;2023-07-13T02:10:12;19.35;;;6.80;;
52798;SDS011;38667;42.872;74.622;2023-07-13T02:12:40;13.88;;;6.95;;
52798;SDS011;38667;42.872;74.622;2023-07-13T02:15:07;21.23;;;7.60;;
52798;SDS011;38667;42.872;74.622;2023-07-13T02:17:34;27.25;;;7.03;;
52798;SDS011;38667;42.872;74.622;2023-07-13T02:20:02;17.02;;;6.00;;
52798;SDS011;38667;42.872;74.622;2023-07-13T02:22:29;22.38;;;6.47;;
52798;SDS011;38667;42.872;74.622;2023-07-13T02:24:56;15.10;;;5.55;;
52798;SDS011;38667;42.872;74.622;2023-07-13T02:27:22;8.77;;;4.85;;
52798;SDS011;38667;42.872;74.622;2023-07-13T02:29:50;20.65;;;5.75;;
52798;SDS011;38667;42.872;74.622;2023-07-13T02:32:16;15.68;;;5.82;;
52798;SDS011;38667;42.872;74.622;2023-07-13T02:34:43;14.85;;;6.15;;
52798;SDS011;38667;42.872;74.622;2023-07-13T02:37:09;19.73;;;6.15;;
52798;SDS011;38667;42.872;74.622;2023-07-13T02:39:36;16.40;;;5.25;;
52798;SDS011;38667;42.872;74.622;2023-07-13T02:42:02;9.20;;;4.45;;
52798;SDS011;38667;42.872;74.622;2023-07-13T02:44:29;10.27;;;4.45;;
52798;SDS011;38667;42.872;74.622;2023-07-13T02:46:57;11.13;;;4.90;;
52798;SDS011;38667;42.872;74.622;2023-07-13T02:49:23;13.80;;;4.85;;
52798;SDS011;38667;42.872;74.622;2023-07-13T02:51:50;18.40;;;6.00;;
52798;SDS011;38667;42.872;74.622;2023-07-13T02:54:17;12.15;;;5.63;;
52798;SDS011;38667;42.872;74.622;2023-07-13T02:56:43;15.52;;;5.22;;
52798;SDS011;38667;42.872;74.622;2023-07-13T02:59:09;14.50;;;5.32;;
52798;SDS011;38667;42.872;74.622;2023-07-13T03:01:36;16.80;;;5.50;;
52798;SDS011;38667;42.872;74.622;2023-07-13T03:04:05;19.75;;;5.35;;
52798;SDS011;38667;42.872;74.622;2023-07-13T03:06:31;15.13;;;5.47;;
52798;SDS011;38667;42.872;74.622;2023-07-13T03:08:57;14.05;;;4.85;;
52798;SDS011;38667;42.872;74.622;2023-07-13T03:11:24;10.98;;;4.57;;
52798;SDS011;38667;42.872;74.622;2023-07-13T03:13:50;8.68;;;4.55;;
52798;SDS011;38667;42.872;74.622;2023-07-13T03:16:17;15.43;;;4.72;;
52798;SDS011;38667;42.872;74.622;2023-07-13T03:18:43;16.13;;;4.63;;
52798;SDS011;38667;42.872;74.622;2023-07-13T03:21:12;9.57;;;4.10;;
52798;SDS011;38667;42.872;74.622;2023-07-13T03:23:39;7.03;;;3.67;;
52798;SDS011;38667;42.872;74.622;2023-07-13T03:26:06;12.43;;;3.92;;
52798;SDS011;38667;42.872;74.622;2023-07-13T03:28:34;9.27;;;4.45;;
52798;SDS011;38667;42.872;74.622;2023-07-13T03:31:02;17.60;;;4.88;;
52798;SDS011;38667;42.872;74.622;2023-07-13T03:33:30;11.95;;;4.88;;
52798;SDS011;38667;42.872;74.622;2023-07-13T03:35:57;11.93;;;5.00;;
52798;SDS011;38667;42.872;74.622;2023-07-13T03:38:25;15.02;;;4.93;;
52798;SDS011;38667;42.872;74.622;2023-07-13T03:40:51;13.98;;;5.13;;
52798;SDS011;38667;42.872;74.622;2023-07-13T03:43:17;13.00;;;4.22;;
52798;SDS011;38667;42.872;74.622;2023-07-13T03:45:44;10.63;;;3.95;;
52798;SDS011;38667;42.872;74.622;2023-07-13T03:48:10;14.35;;;4.07;;
52798;SDS011;38667;42.872;74.622;2023-07-13T03:50:36;9.52;;;3.95;;
52798;SDS011;38667;42.872;74.622;2023-07-13T03:53:03;15.50;;;3.88;;
52798;SDS011;38667;42.872;74.622;2023-07-13T03:55:31;7.82;;;3.30;;
52798;SDS011;38667;42.872;74.622;2023-07-13T03:57:58;13.38;;;3.90;;
52798;SDS011;38667;42.872;74.622;2023-07-13T04:00:25;10.77;;;4.28;;
52798;SDS011;38667;42.872;74.622;2023-07-13T04:02:51;10.48;;;3.92;;
52798;SDS011;38667;42.872;74.622;2023-07-13T04:05:18;8.98;;;3.72;;
52798;SDS011;38667;42.872;74.622;2023-07-13T04:07:44;11.48;;;4.93;;
52798;SDS011;38667;42.872;74.622;2023-07-13T04:10:11;8.15;;;4.13;;
52798;SDS011;38667;42.872;74.622;2023-07-13T04:12:38;20.80;;;4.43;;
52798;SDS011;38667;42.872;74.622;2023-07-13T04:15:05;11.77;;;4.30;;
52798;SDS011;38667;42.872;74.622;2023-07-13T04:17:32;12.32;;;4.28;;
52798;SDS011;38667;42.872;74.622;2023-07-13T04:19:59;14.00;;;3.60;;
52798;SDS011;38667;42.872;74.622;2023-07-13T04:22:25;10.70;;;3.45;;
52798;SDS011;38667;42.872;74.622;2023-07-13T04:24:51;10.40;;;3.42;;
52798;SDS011;38667;42.872;74.622;2023-07-13T04:27:18;10.20;;;3.05;;
52798;SDS011;38667;42.872;74.622;2023-07-13T04:29:46;10.52;;;3.45;;
52798;SDS011;38667;42.872;74.622;2023-07-13T04:32:13;8.82;;;3.58;;
52798;SDS011;38667;42.872;74.622;2023-07-13T04:34:39;11.02;;;3.65;;
52798;SDS011;38667;42.872;74.622;2023-07-13T04:37:05;8.02;;;3.40;;
52798;SDS011;38667;42.872;74.622;2023-07-13T04:39:32;12.60;;;3.22;;
52798;SDS011;38667;42.872;74.622;2023-07-13T04:41:58;5.95;;;3.10;;
52798;SDS011;38667;42.872;74.622;2023-07-13T04:44:24;6.45;;;2.97;;
52798;SDS011;38667;42.872;74.622;2023-07-13T04:46:52;8.98;;;3.13;;
52798;SDS011;38667;42.872;74.622;2023-07-13T04:49:18;15.27;;;3.70;;
52798;SDS011;38667;42.872;74.622;2023-07-13T04:51:45;15.13;;;4.00;;
52798;SDS011;38667;42.872;74.622;2023-07-13T04:54:11;13.75;;;4.00;;
52798;SDS011;38667;42.872;74.622;2023-07-13T04:56:37;10.73;;;3.08;;
52798;SDS011;38667;42.872;74.622;2023-07-13T04:59:04;11.70;;;2.67;;
52798;SDS011;38667;42.872;74.622;2023-07-13T05:01:30;14.38;;;3.60;;
52798;SDS011;38667;42.872;74.622;2023-07-13T05:03:58;16.10;;;4.15;;
52798;SDS011;38667;42.872;74.622;2023-07-13T05:06:24;11.75;;;3.85;;
52798;SDS011;38667;42.872;74.622;2023-07-13T05:08:50;16.77;;;4.10;;
52798;SDS011;38667;42.872;74.622;2023-07-13T05:11:17;12.45;;;4.10;;
52798;SDS011;38667;42.872;74.622;2023-07-13T05:13:44;11.95;;;4.00;;
52798;SDS011;38667;42.872;74.622;2023-07-13T05:16:10;12.10;;;3.20;;
52798;SDS011;38667;42.872;74.622;2023-07-13T05:18:36;18.38;;;4.43;;
52798;SDS011;38667;42.872;74.622;2023-07-13T05:21:05;11.75;;;3.72;;
52798;SDS011;38667;42.872;74.622;2023-07-13T05:23:33;12.43;;;3.28;;
52798;SDS011;38667;42.872;74.622;2023-07-13T05:25:59;10.38;;;3.20;;
52798;SDS011;38667;42.872;74.622;2023-07-13T05:28:26;6.32;;;2.47;;
52798;SDS011;38667;42.872;74.622;2023-07-13T05:30:53;6.38;;;2.30;;
52798;SDS011;38667;42.872;74.622;2023-07-13T05:33:20;6.30;;;2.17;;
52798;SDS011;38667;42.872;74.622;2023-07-13T05:35:46;9.90;;;2.70;;
52798;SDS011;38667;42.872;74.622;2023-07-13T05:38:14;8.80;;;2.30;;
52798;SDS011;38667;42.872;74.622;2023-07-13T05:40:42;7.53;;;2.38;;
52798;SDS011;38667;42.872;74.622;2023-07-13T05:43:08;7.57;;;2.53;;
52798;SDS011;38667;42.872;74.622;2023-07-13T05:45:35;9.02;;;2.08;;
52798;SDS011;38667;42.872;74.622;2023-07-13T05:48:01;3.67;;;2.00;;
52798;SDS011;38667;42.872;74.622;2023-07-13T05:50:27;5.05;;;2.50;;
52798;SDS011;38667;42.872;74.622;2023-07-13T05:52:54;5.95;;;2.35;;
52798;SDS011;38667;42.872;74.622;2023-07-13T05:55:22;9.32;;;2.70;;
52798;SDS011;38667;42.872;74.622;2023-07-13T05:57:48;6.70;;;2.45;;
52798;SDS011;38667;42.872;74.622;2023-07-13T06:00:15;6.03;;;2.83;;
52798;SDS011;38667;42.872;74.622;2023-07-13T06:02:41;8.63;;;2.60;;
52798;SDS011;38667;42.872;74.622;2023-07-13T06:05:08;6.05;;;2.28;;
52798;SDS011;38667;42.872;74.622;2023-07-13T06:07:35;9.90;;;2.72;;
52798;SDS011;38667;42.872;74.622;2023-07-13T06:10:01;6.88;;;2.33;;
52798;SDS011;38667;42.872;74.622;2023-07-13T06:12:30;7.25;;;2.78;;
52798;SDS011;38667;42.872;74.622;2023-07-13T06:14:56;5.85;;;2.30;;
52798;SDS011;38667;42.872;74.622;2023-07-13T06:17:22;6.13;;;1.92;;
52798;SDS011;38667;42.872;74.622;2023-07-13T06:19:48;4.25;;;2.10;;
52798;SDS011;38667;42.872;74.622;2023-07-13T06:22:15;5.07;;;2.00;;
52798;SDS011;38667;42.872;74.622;2023-07-13T06:24:41;6.68;;;2.00;;
52798;SDS011;38667;42.872;74.622;2023-07-13T06:27:07;6.35;;;1.83;;
52798;SDS011;38667;42.872;74.622;2023-07-13T06:29:36;5.60;;;1.70;;
52798;SDS011;38667;42.872;74.622;2023-07-13T06:32:03;4.70;;;1.33;;
52798;SDS011;38667;42.872;74.622;2023-07-13T06:34:29;9.50;;;1.77;;
52798;SDS011;38667;42.872;74.622;2023-07-13T06:36:56;5.72;;;1.77;;
52798;SDS011;38667;42.872;74.622;2023-07-13T06:39:22;4.43;;;2.05;;
52798;SDS011;38667;42.872;74.622;2023-07-13T06:41:48;4.68;;;1.77;;
52798;SDS011;38667;42.872;74.622;2023-07-13T06:44:15;7.78;;;1.48;;
52798;SDS011;38667;42.872;74.622;2023-07-13T06:46:43;6.57;;;1.73;;
52798;SDS011;38667;42.872;74.622;2023-07-13T06:49:09;5.32;;;1.67;;
52798;SDS011;38667;42.872;74.622;2023-07-13T06:51:35;3.13;;;1.55;;
52798;SDS011;38667;42.872;74.622;2023-07-13T06:54:02;5.03;;;1.60;;
52798;SDS011;38667;42.872;74.622;2023-07-13T06:56:29;4.40;;;1.50;;
52798;SDS011;38667;42.872;74.622;2023-07-13T06:58:55;2.28;;;1.20;;
52798;SDS011;38667;42.872;74.622;2023-07-13T07:01:21;1.90;;;1.08;;
52798;SDS011;38667;42.872;74.622;2023-07-13T07:03:49;2.83;;;1.30;;
52798;SDS011;38667;42.872;74.622;2023-07-13T07:06:18;1.55;;;0.98;;
52798;SDS011;38667;42.872;74.622;2023-07-13T07:08:46;3.92;;;1.25;;
52798;SDS011;38667;42.872;74.622;2023-07-13T07:11:13;5.18;;;1.35;;
52798;SDS011;38667;42.872;74.622;2023-07-13T07:13:41;4.07;;;1.60;;
52798;SDS011;38667;42.872;74.622;2023-07-13T07:16:08;5.07;;;1.60;;
52798;SDS011;38667;42.872;74.622;2023-07-13T07:18:34;3.40;;;1.55;;
52798;SDS011;38667;42.872;74.622;2023-07-13T07:21:02;19.23;;;7.13;;
52798;SDS011;38667;42.872;74.622;2023-07-13T07:23:29;41.88;;;26.75;;
52798;SDS011;38667;42.872;74.622;2023-07-13T07:25:55;99.95;;;59.80;;
52798;SDS011;38667;42.872;74.622;2023-07-13T07:28:21;87.10;;;54.38;;
52798;SDS011;38667;42.872;74.622;2023-07-13T07:30:48;98.40;;;58.53;;
52798;SDS011;38667;42.872;74.622;2023-07-13T07:33:18;120.10;;;72.53;;
52798;SDS011;38667;42.872;74.622;2023-07-13T07:35:44;118.28;;;68.18;;
52798;SDS011;38667;42.872;74.622;2023-07-13T07:38:12;42.33;;;25.33;;
52798;SDS011;38667;42.872;74.622;2023-07-13T07:40:38;51.53;;;30.55;;
52798;SDS011;38667;42.872;74.622;2023-07-13T07:43:06;71.75;;;38.90;;
52798;SDS011;38667;42.872;74.622;2023-07-13T07:45:32;74.85;;;43.58;;
52798;SDS011;38667;42.872;74.622;2023-07-13T07:47:59;41.95;;;25.52;;
52798;SDS011;38667;42.872;74.622;2023-07-13T07:50:25;25.23;;;13.90;;
52798;SDS011;38667;42.872;74.622;2023-07-13T07:52:52;21.55;;;15.02;;
52798;SDS011;38667;42.872;74.622;2023-07-13T07:55:20;11.50;;;6.65;;
52798;SDS011;38667;42.872;74.622;2023-07-13T07:57:46;7.93;;;4.97;;
52798;SDS011;38667;42.872;74.622;2023-07-13T08:00:13;8.60;;;5.18;;
52798;SDS011;38667;42.872;74.622;2023-07-13T08:02:40;7.50;;;4.53;;
52798;SDS011;38667;42.872;74.622;2023-07-13T08:05:06;10.13;;;4.07;;
52798;SDS011;38667;42.872;74.622;2023-07-13T08:07:33;4.28;;;2.92;;
52798;SDS011;38667;42.872;74.622;2023-07-13T08:10:00;9.02;;;4.15;;
52798;SDS011;38667;42.872;74.622;2023-07-13T08:12:27;5.93;;;2.63;;
52798;SDS011;38667;42.872;74.622;2023-07-13T08:14:54;4.53;;;1.90;;
52798;SDS011;38667;42.872;74.622;2023-07-13T08:17:20;5.75;;;2.13;;
52798;SDS011;38667;42.872;74.622;2023-07-13T08:19:46;6.55;;;2.17;;
52798;SDS011;38667;42.872;74.622;2023-07-13T08:22:13;3.53;;;2.45;;
52798;SDS011;38667;42.872;74.622;2023-07-13T08:24:39;3.58;;;2.60;;
52798;SDS011;38667;42.872;74.622;2023-07-13T08:27:06;4.13;;;2.85;;
52798;SDS011;38667;42.872;74.622;2023-07-13T08:29:34;8.35;;;2.55;;
52798;SDS011;38667;42.872;74.622;2023-07-13T08:32:00;5.10;;;2.10;;
52798;SDS011;38667;42.872;74.622;2023-07-13T08:34:26;3.30;;;2.00;;
52798;SDS011;38667;42.872;74.622;2023-07-13T08:36:53;3.50;;;1.92;;
52798;SDS011;38667;42.872;74.622;2023-07-13T08:39:19;2.50;;;1.65;;
52798;SDS011;38667;42.872;74.622;2023-07-13T08:41:45;4.80;;;1.90;;
52798;SDS011;38667;42.872;74.622;2023-07-13T08:44:16;5.22;;;1.55;;
52798;SDS011;38667;42.872;74.622;2023-07-13T08:46:51;2.65;;;1.42;;
52798;SDS011;38667;42.872;74.622;2023-07-13T08:49:21;6.22;;;1.75;;
52798;SDS011;38667;42.872;74.622;2023-07-13T08:51:49;2.33;;;1.20;;
52798;SDS011;38667;42.872;74.622;2023-07-13T08:54:23;2.97;;;1.30;;
52798;SDS011;38667;42.872;74.622;2023-07-13T08:56:53;2.20;;;1.63;;
52798;SDS011;38667;42.872;74.622;2023-07-13T08:59:22;7.07;;;2.05;;
52798;SDS011;38667;42.872;74.622;2023-07-13T09:01:57;3.22;;;1.30;;
52798;SDS011;38667;42.872;74.622;2023-07-13T09:04:41;2.90;;;1.58;;
52798;SDS011;38667;42.872;74.622;2023-07-13T09:07:13;3.05;;;1.40;;
52798;SDS011;38667;42.872;74.622;2023-07-13T09:09:50;5.25;;;1.60;;
52798;SDS011;38667;42.872;74.622;2023-07-13T09:12:25;4.38;;;1.60;;
52798;SDS011;38667;42.872;74.622;2023-07-13T09:14:58;2.30;;;1.55;;
52798;SDS011;38667;42.872;74.622;2023-07-13T09:17:29;4.60;;;1.77;;
52798;SDS011;38667;42.872;74.622;2023-07-13T09:19:59;4.50;;;1.50;;
52798;SDS011;38667;42.872;74.622;2023-07-13T09:22:29;3.50;;;1.30;;
52798;SDS011;38667;42.872;74.622;2023-07-13T09:25:02;4.22;;;1.20;;
52798;SDS011;38667;42.872;74.622;2023-07-13T09:27:39;2.22;;;1.10;;
52798;SDS011;38667;42.872;74.622;2023-07-13T09:30:17;5.82;;;1.50;;
52798;SDS011;38667;42.872;74.622;2023-07-13T09:32:54;2.28;;;1.30;;
52798;SDS011;38667;42.872;74.622;2023-07-13T09:35:22;3.88;;;1.20;;
52798;SDS011;38667;42.872;74.622;2023-07-13T09:37:51;5.78;;;1.40;;
52798;SDS011;38667;42.872;74.622;2023-07-13T09:40:24;3.08;;;1.67;;
52798;SDS011;38667;42.872;74.622;2023-07-13T09:42:55;3.85;;;1.60;;
52798;SDS011;38667;42.872;74.622;2023-07-13T09:45:26;4.07;;;1.50;;
52798;SDS011;38667;42.872;74.622;2023-07-13T09:48:03;3.42;;;1.65;;
52798;SDS011;38667;42.872;74.622;2023-07-13T09:50:31;4.18;;;1.58;;
52798;SDS011;38667;42.872;74.622;2023-07-13T09:52:57;3.88;;;2.17;;
52798;SDS011;38667;42.872;74.622;2023-07-13T09:55:26;2.78;;;1.38;;
52798;SDS011;38667;42.872;74.622;2023-07-13T09:57:55;3.33;;;1.70;;
52798;SDS011;38667;42.872;74.622;2023-07-13T10:00:23;2.30;;;1.65;;
52798;SDS011;38667;42.872;74.622;2023-07-13T10:02:58;5.07;;;1.92;;
52798;SDS011;38667;42.872;74.622;2023-07-13T10:05:28;3.53;;;1.90;;
52798;SDS011;38667;42.872;74.622;2023-07-13T10:08:03;7.00;;;1.77;;
52798;SDS011;38667;42.872;74.622;2023-07-13T10:10:30;4.70;;;2.45;;
52798;SDS011;38667;42.872;74.622;2023-07-13T10:12:56;2.13;;;1.55;;
52798;SDS011;38667;42.872;74.622;2023-07-13T10:15:23;7.30;;;2.35;;
52798;SDS011;38667;42.872;74.622;2023-07-13T10:17:51;6.00;;;2.10;;
52798;SDS011;38667;42.872;74.622;2023-07-13T10:20:19;5.50;;;2.08;;
52798;SDS011;38667;42.872;74.622;2023-07-13T10:22:49;4.93;;;1.75;;
52798;SDS011;38667;42.872;74.622;2023-07-13T10:25:20;4.15;;;1.75;;
52798;SDS011;38667;42.872;74.622;2023-07-13T10:27:47;2.90;;;1.60;;
52798;SDS011;38667;42.872;74.622;2023-07-13T10:30:17;2.25;;;1.80;;
52798;SDS011;38667;42.872;74.622;2023-07-13T10:32:46;2.35;;;1.40;;
52798;SDS011;38667;42.872;74.622;2023-07-13T10:35:14;3.33;;;1.70;;
52798;SDS011;38667;42.872;74.622;2023-07-13T10:37:45;4.68;;;2.30;;
52798;SDS011;38667;42.872;74.622;2023-07-13T10:40:16;4.53;;;2.00;;
52798;SDS011;38667;42.872;74.622;2023-07-13T10:42:48;3.25;;;1.80;;
52798;SDS011;38667;42.872;74.622;2023-07-13T10:45:20;5.30;;;2.00;;
52798;SDS011;38667;42.872;74.622;2023-07-13T10:47:48;4.97;;;2.30;;
52798;SDS011;38667;42.872;74.622;2023-07-13T10:50:19;5.38;;;1.85;;
52798;SDS011;38667;42.872;74.622;2023-07-13T10:52:50;8.27;;;2.10;;
52798;SDS011;38667;42.872;74.622;2023-07-13T10:55:33;5.38;;;1.75;;
52798;SDS011;38667;42.872;74.622;2023-07-13T10:58:02;5.32;;;2.20;;
52798;SDS011;38667;42.872;74.622;2023-07-13T11:00:36;8.43;;;1.60;;
52798;SDS011;38667;42.872;74.622;2023-07-13T11:03:13;5.78;;;2.13;;
52798;SDS011;38667;42.872;74.622;2023-07-13T11:05:41;5.43;;;2.33;;
52798;SDS011;38667;42.872;74.622;2023-07-13T11:08:16;3.35;;;1.88;;
52798;SDS011;38667;42.872;74.622;2023-07-13T11:10:52;4.35;;;1.65;;
52798;SDS011;38667;42.872;74.622;2023-07-13T11:13:39;8.30;;;1.73;;
52798;SDS011;38667;42.872;74.622;2023-07-13T11:16:35;6.15;;;2.25;;
52798;SDS011;38667;42.872;74.622;2023-07-13T11:19:24;6.15;;;1.98;;
52798;SDS011;38667;42.872;74.622;2023-07-13T11:22:03;5.32;;;1.63;;
52798;SDS011;38667;42.872;74.622;2023-07-13T11:28:13;5.70;;;1.95;;
52798;SDS011;38667;42.872;74.622;2023-07-13T11:30:43;5.85;;;1.73;;
52798;SDS011;38667;42.872;74.622;2023-07-13T11:33:14;6.20;;;2.22;;
52798;SDS011;38667;42.872;74.622;2023-07-13T11:35:44;5.50;;;1.92;;
52798;SDS011;38667;42.872;74.622;2023-07-13T11:38:27;8.48;;;2.47;;
52798;SDS011;38667;42.872;74.622;2023-07-13T11:40:57;5.13;;;2.28;;
52798;SDS011;38667;42.872;74.622;2023-07-13T11:43:29;6.30;;;2.00;;
52798;SDS011;38667;42.872;74.622;2023-07-13T11:45:55;5.65;;;2.13;;
52798;SDS011;38667;42.872;74.622;2023-07-13T11:48:23;8.90;;;1.98;;
52798;SDS011;38667;42.872;74.622;2023-07-13T11:50:52;4.45;;;1.90;;
52798;SDS011;38667;42.872;74.622;2023-07-13T11:53:21;5.80;;;2.08;;
52798;SDS011;38667;42.872;74.622;2023-07-13T11:55:48;7.57;;;2.80;;
52798;SDS011;38667;42.872;74.622;2023-07-13T11:58:17;2.97;;;1.92;;
52798;SDS011;38667;42.872;74.622;2023-07-13T12:00:49;4.95;;;2.17;;
52798;SDS011;38667;42.872;74.622;2023-07-13T12:03:18;6.30;;;2.15;;
52798;SDS011;38667;42.872;74.622;2023-07-13T12:05:55;3.90;;;2.05;;
52798;SDS011;38667;42.872;74.622;2023-07-13T12:08:22;6.82;;;2.38;;
52798;SDS011;38667;42.872;74.622;2023-07-13T12:10:55;6.15;;;2.15;;
52798;SDS011;38667;42.872;74.622;2023-07-13T12:13:22;9.13;;;2.30;;
52798;SDS011;38667;42.872;74.622;2023-07-13T12:15:50;5.20;;;2.75;;
52798;SDS011;38667;42.872;74.622;2023-07-13T12:18:19;8.88;;;2.22;;
52798;SDS011;38667;42.872;74.622;2023-07-13T12:20:47;5.65;;;2.10;;
52798;SDS011;38667;42.872;74.622;2023-07-13T12:23:19;7.30;;;2.78;;
52798;SDS011;38667;42.872;74.622;2023-07-13T12:25:48;9.95;;;2.65;;
52798;SDS011;38667;42.872;74.622;2023-07-13T12:28:22;3.83;;;1.88;;
52798;SDS011;38667;42.872;74.622;2023-07-13T12:30:59;5.07;;;2.10;;
52798;SDS011;38667;42.872;74.622;2023-07-13T12:33:27;11.73;;;4.47;;
52798;SDS011;38667;42.872;74.622;2023-07-13T12:35:54;9.48;;;3.72;;
52798;SDS011;38667;42.872;74.622;2023-07-13T12:38:21;7.05;;;2.50;;
52798;SDS011;38667;42.872;74.622;2023-07-13T12:40:51;7.95;;;2.50;;
52798;SDS011;38667;42.872;74.622;2023-07-13T12:43:19;7.13;;;3.20;;
52798;SDS011;38667;42.872;74.622;2023-07-13T12:45:56;4.88;;;2.60;;
52798;SDS011;38667;42.872;74.622;2023-07-13T12:48:26;5.78;;;3.65;;
52798;SDS011;38667;42.872;74.622;2023-07-13T12:50:53;6.03;;;3.17;;
52798;SDS011;38667;42.872;74.622;2023-07-13T12:53:21;7.65;;;3.35;;
52798;SDS011;38667;42.872;74.622;2023-07-13T12:55:49;6.68;;;3.35;;
52798;SDS011;38667;42.872;74.622;2023-07-13T12:58:21;7.25;;;3.22;;
52798;SDS011;38667;42.872;74.622;2023-07-13T13:00:51;7.18;;;3.05;;
52798;SDS011;38667;42.872;74.622;2023-07-13T13:03:24;7.72;;;3.55;;
52798;SDS011;38667;42.872;74.622;2023-07-13T13:05:59;9.82;;;3.80;;
52798;SDS011;38667;42.872;74.622;2023-07-13T13:08:26;9.75;;;3.35;;
52798;SDS011;38667;42.872;74.622;2023-07-13T13:10:52;6.18;;;2.97;;
52798;SDS011;38667;42.872;74.622;2023-07-13T13:13:19;4.97;;;3.00;;
52798;SDS011;38667;42.872;74.622;2023-07-13T13:15:45;5.28;;;2.60;;
52798;SDS011;38667;42.872;74.622;2023-07-13T13:18:15;5.45;;;2.42;;
52798;SDS011;38667;42.872;74.622;2023-07-13T13:20:43;8.95;;;2.88;;
52798;SDS011;38667;42.872;74.622;2023-07-13T13:23:11;6.25;;;2.60;;
52798;SDS011;38667;42.872;74.622;2023-07-13T13:25:38;9.15;;;2.63;;
52798;SDS011;38667;42.872;74.622;2023-07-13T13:28:05;8.55;;;3.50;;
52798;SDS011;38667;42.872;74.622;2023-07-13T13:30:35;5.35;;;2.42;;
52798;SDS011;38667;42.872;74.622;2023-07-13T13:33:02;10.65;;;3.00;;
52798;SDS011;38667;42.872;74.622;2023-07-13T13:35:30;7.97;;;3.40;;
52798;SDS011;38667;42.872;74.622;2023-07-13T13:37:58;7.38;;;3.20;;
52798;SDS011;38667;42.872;74.622;2023-07-13T13:40:24;5.70;;;2.97;;
52798;SDS011;38667;42.872;74.622;2023-07-13T13:42:50;8.32;;;3.28;;
52798;SDS011;38667;42.872;74.622;2023-07-13T13:45:17;8.50;;;2.50;;
52798;SDS011;38667;42.872;74.622;2023-07-13T13:47:43;5.75;;;2.80;;
52798;SDS011;38667;42.872;74.622;2023-07-13T13:50:13;6.00;;;2.80;;
52798;SDS011;38667;42.872;74.622;2023-07-13T13:52:40;4.60;;;2.58;;
52798;SDS011;38667;42.872;74.622;2023-07-13T13:55:13;8.00;;;2.80;;
52798;SDS011;38667;42.872;74.622;2023-07-13T13:57:39;9.57;;;2.90;;
52798;SDS011;38667;42.872;74.622;2023-07-13T14:00:07;8.13;;;3.10;;
52798;SDS011;38667;42.872;74.622;2023-07-13T14:02:35;5.63;;;2.45;;
52798;SDS011;38667;42.872;74.622;2023-07-13T14:05:02;7.22;;;3.08;;
52798;SDS011;38667;42.872;74.622;2023-07-13T14:07:29;8.43;;;3.05;;
52798;SDS011;38667;42.872;74.622;2023-07-13T14:09:56;12.40;;;2.85;;
52798;SDS011;38667;42.872;74.622;2023-07-13T14:12:26;4.63;;;3.00;;
52798;SDS011;38667;42.872;74.622;2023-07-13T14:14:53;6.05;;;3.10;;
52798;SDS011;38667;42.872;74.622;2023-07-13T14:17:20;8.93;;;3.72;;
52798;SDS011;38667;42.872;74.622;2023-07-13T14:19:48;8.40;;;3.60;;
52798;SDS011;38667;42.872;74.622;2023-07-13T14:22:14;14.60;;;3.70;;
52798;SDS011;38667;42.872;74.622;2023-07-13T14:24:40;11.93;;;4.30;;
52798;SDS011;38667;42.872;74.622;2023-07-13T14:27:07;10.10;;;7.43;;
52798;SDS011;38667;42.872;74.622;2023-07-13T14:29:36;16.45;;;10.75;;
52798;SDS011;38667;42.872;74.622;2023-07-13T14:32:02;17.98;;;6.40;;
52798;SDS011;38667;42.872;74.622;2023-07-13T14:34:29;15.25;;;4.97;;
52798;SDS011;38667;42.872;74.622;2023-07-13T14:36:55;16.40;;;5.20;;